EDFH/HHN METAR and TAF weather

Enter ICAO airport designator
Station Type Date Time Source
EDFH METAR 2018/07/21 11:20 UTC NOAA

EDFH 211120Z VRB03KT CAVOK 23/13 Q1013


Station Type Date Time Source
EDFH Decoded METAR 2018/07/21 11:20 UTC NOAA

Hahn, Germany (EDFH) 49-57N 007-16E 498M
Jul 21, 2018 - 07:20 AM EDT / 2018.07.21 1120 UTC
Wind: Variable at 3 MPH (3 KT):0
Visibility: greater than 7 mile(s):0
Temperature: 73 F (23 C)
Dew Point: 55 F (13 C)
Relative Humidity: 53%
Pressure (altimeter): 29.91 in. Hg (1013 hPa)
ob: EDFH 211120Z VRB03KT CAVOK 23/13 Q1013
cycle: 11

Station Type Date Time Source
EDFH TAF 2018/07/21 12:27 UTC NOAA

TAF EDFH 211100Z 2112/2212 27007KT 9999 SCT045 PROB30
TEMPO 2113/2120 29015G25KT 4000 TSRA SCT040CB


Example: see airport list